createdAt,value
2022-07-28T00:01:48.861Z,5.00
2022-07-28T00:04:55.166Z,3.92
2022-07-28T00:07:41.067Z,4.80
2022-07-28T00:10:19.124Z,3.40
2022-07-28T00:16:01.262Z,2.10
2022-07-28T00:18:39.725Z,3.47
2022-07-28T00:21:22.381Z,4.45
2022-07-28T00:24:06.791Z,3.92
2022-07-28T00:29:50.280Z,2.03
2022-07-28T00:32:32.416Z,2.17
2022-07-28T00:35:25.204Z,2.30
2022-07-28T00:38:27.153Z,2.40
2022-07-28T00:41:19.328Z,3.78
2022-07-28T00:44:19.332Z,3.00
2022-07-28T00:47:17.005Z,4.43
2022-07-28T00:49:57.007Z,3.47
2022-07-28T00:52:36.160Z,2.15
2022-07-28T00:55:12.099Z,1.98
2022-07-28T00:57:51.955Z,2.50
2022-07-28T01:00:33.442Z,2.20
2022-07-28T01:03:12.125Z,3.63
2022-07-28T01:06:14.172Z,2.83
2022-07-28T01:09:17.625Z,2.20
2022-07-28T01:12:31.273Z,2.78
2022-07-28T01:15:36.341Z,3.15
2022-07-28T01:18:58.082Z,2.28
2022-07-28T01:21:56.402Z,3.22
2022-07-28T01:25:26.522Z,2.67
2022-07-28T01:28:37.753Z,4.05
2022-07-28T01:31:49.759Z,1.92
2022-07-28T01:34:46.043Z,1.33
2022-07-28T01:38:06.490Z,2.35
2022-07-28T01:40:50.413Z,2.20
2022-07-28T01:44:06.226Z,0.95
2022-07-28T01:53:53.051Z,3.08
2022-07-28T01:56:42.169Z,1.38
2022-07-28T02:02:25.572Z,2.83
2022-07-28T02:05:24.381Z,1.75
2022-07-28T02:08:45.528Z,2.97
2022-07-28T02:11:43.871Z,2.60
2022-07-28T02:14:29.546Z,3.53
2022-07-28T02:18:02.895Z,1.17
2022-07-28T02:20:39.699Z,1.98
2022-07-28T02:23:41.635Z,1.67
2022-07-28T02:29:52.480Z,1.17
2022-07-28T02:33:01.853Z,1.63
2022-07-28T02:36:20.987Z,5.72
2022-07-28T02:39:15.012Z,1.38
2022-07-28T02:42:16.218Z,3.13
2022-07-28T02:45:13.774Z,4.00
2022-07-28T02:48:00.078Z,1.67
2022-07-28T02:51:00.650Z,2.90
2022-07-28T02:57:10.068Z,1.40
2022-07-28T02:59:47.409Z,1.30
2022-07-28T03:02:38.470Z,3.75
2022-07-28T03:05:17.318Z,1.27
2022-07-28T03:07:59.617Z,1.40
2022-07-28T03:10:42.081Z,0.88
2022-07-28T03:13:28.851Z,2.15
2022-07-28T03:16:17.863Z,1.02
2022-07-28T03:18:53.516Z,0.43
2022-07-28T03:21:43.276Z,0.75
2022-07-28T03:24:27.274Z,2.00
2022-07-28T03:27:47.863Z,1.15
2022-07-28T03:31:10.362Z,1.15
2022-07-28T03:34:03.115Z,1.20
2022-07-28T03:37:03.317Z,0.85
2022-07-28T03:40:25.363Z,11.00
2022-07-28T03:43:26.388Z,1.08
2022-07-28T03:46:02.458Z,0.93
2022-07-28T03:48:45.093Z,1.90
2022-07-28T03:51:24.456Z,1.67
2022-07-28T03:54:05.250Z,1.73
2022-07-28T03:56:41.190Z,1.65
2022-07-28T03:59:25.102Z,1.33
2022-07-28T04:02:01.513Z,1.95
2022-07-28T04:04:39.684Z,1.75
2022-07-28T04:07:20.480Z,4.47
2022-07-28T04:10:02.645Z,2.67
2022-07-28T04:12:55.439Z,1.35
2022-07-28T04:15:50.379Z,4.68
2022-07-28T04:18:27.172Z,1.15
2022-07-28T04:21:03.883Z,1.55
2022-07-28T04:23:43.437Z,2.25
2022-07-28T04:26:33.456Z,1.77
2022-07-28T04:29:23.367Z,2.88
2022-07-28T04:32:38.465Z,1.33
2022-07-28T04:35:36.577Z,2.72
2022-07-28T04:38:19.449Z,1.38
2022-07-28T04:41:11.476Z,2.80
2022-07-28T04:43:51.074Z,3.65
2022-07-28T04:46:43.339Z,2.55
2022-07-28T04:50:24.982Z,3.65
2022-07-28T04:53:09.033Z,1.85
2022-07-28T04:55:47.231Z,3.22
2022-07-28T04:58:31.444Z,3.03
2022-07-28T05:01:33.310Z,3.05
2022-07-28T05:04:21.439Z,5.63
2022-07-28T05:07:01.060Z,5.53
2022-07-28T05:10:01.439Z,2.33
2022-07-28T05:12:39.312Z,2.03
2022-07-28T05:15:21.423Z,4.57
2022-07-28T05:18:19.721Z,3.03
2022-07-28T05:21:22.445Z,3.22
2022-07-28T05:24:04.451Z,3.53
2022-07-28T05:26:42.385Z,3.53
2022-07-28T05:29:21.655Z,3.35
2022-07-28T05:32:16.726Z,3.08
2022-07-28T05:35:17.334Z,2.88
2022-07-28T05:37:52.985Z,3.03
2022-07-28T05:40:31.743Z,3.25
2022-07-28T05:43:07.821Z,4.20
2022-07-28T05:45:50.148Z,4.47
2022-07-28T05:48:38.807Z,2.45
2022-07-28T05:51:17.346Z,3.75
2022-07-28T05:53:56.501Z,2.75
2022-07-28T05:56:32.323Z,3.35
2022-07-28T05:59:33.613Z,3.80
2022-07-28T06:02:33.271Z,5.10
2022-07-28T06:05:11.403Z,4.15
2022-07-28T06:07:57.589Z,5.00
2022-07-28T06:10:47.449Z,3.63
2022-07-28T06:13:27.304Z,2.72
2022-07-28T06:16:09.669Z,6.15
2022-07-28T06:19:01.479Z,3.42
2022-07-28T06:21:41.650Z,3.00
2022-07-28T06:24:34.237Z,4.82
2022-07-28T06:27:10.623Z,4.10
2022-07-28T06:29:49.947Z,3.33
2022-07-28T06:32:28.862Z,6.10
2022-07-28T06:35:12.967Z,7.78
2022-07-28T06:38:00.684Z,4.38
2022-07-28T06:40:43.675Z,3.15
2022-07-28T06:43:22.738Z,5.38
2022-07-28T06:45:58.681Z,4.80
2022-07-28T06:48:45.310Z,4.65
2022-07-28T06:51:30.444Z,5.28
2022-07-28T06:54:15.137Z,4.38
2022-07-28T06:57:01.868Z,6.28
2022-07-28T06:59:37.939Z,7.28
2022-07-28T07:02:26.310Z,7.78
2022-07-28T07:05:53.130Z,10.52
2022-07-28T07:08:35.281Z,7.22
2022-07-28T07:11:10.685Z,5.82
2022-07-28T07:13:57.331Z,6.95
2022-07-28T07:16:45.251Z,6.10
2022-07-28T07:22:58.029Z,4.30
2022-07-28T07:25:37.122Z,3.17
2022-07-28T07:28:17.100Z,3.58
2022-07-28T07:30:57.988Z,4.72
2022-07-28T07:33:39.125Z,4.32
2022-07-28T07:36:22.265Z,3.15
2022-07-28T07:39:23.088Z,2.60
2022-07-28T07:42:06.130Z,2.30
2022-07-28T07:44:50.360Z,2.92
2022-07-28T07:47:43.891Z,2.30
2022-07-28T07:50:27.506Z,2.72
2022-07-28T07:53:05.026Z,4.93
2022-07-28T07:55:45.299Z,3.60
2022-07-28T07:58:24.482Z,2.75
2022-07-28T08:01:03.145Z,2.53
2022-07-28T08:03:54.811Z,4.53
2022-07-28T08:06:34.127Z,2.75
2022-07-28T08:09:29.765Z,2.33
2022-07-28T08:12:16.040Z,4.20
2022-07-28T08:14:52.752Z,3.03
2022-07-28T08:17:34.123Z,2.30
2022-07-28T08:20:15.429Z,2.22
2022-07-28T08:23:08.795Z,1.25
2022-07-28T08:25:55.901Z,2.92
2022-07-28T08:28:33.411Z,2.05
2022-07-28T08:31:10.004Z,3.75
2022-07-28T08:33:53.523Z,2.70
2022-07-28T08:36:46.260Z,3.67
2022-07-28T08:39:25.166Z,1.88
2022-07-28T08:42:53.132Z,2.65
2022-07-28T08:46:00.182Z,3.30
2022-07-28T08:48:56.273Z,3.90
2022-07-28T08:51:36.842Z,4.07
2022-07-28T08:54:27.199Z,4.25
2022-07-28T08:57:31.420Z,5.55
2022-07-28T09:00:08.656Z,3.63
2022-07-28T09:02:47.528Z,2.90
2022-07-28T09:05:59.808Z,4.70
2022-07-28T09:08:43.595Z,6.25
2022-07-28T09:11:53.415Z,4.75
2022-07-28T09:14:37.160Z,4.75
2022-07-28T09:17:15.848Z,3.80
2022-07-28T09:20:17.686Z,3.50
2022-07-28T09:23:03.942Z,3.33
2022-07-28T09:25:41.492Z,2.83
2022-07-28T09:28:26.474Z,3.03
2022-07-28T09:31:33.108Z,5.43
2022-07-28T09:34:24.217Z,4.00
2022-07-28T09:37:00.938Z,2.85
2022-07-28T09:39:52.815Z,2.35
2022-07-28T09:43:09.624Z,4.78
2022-07-28T09:46:18.714Z,3.03
2022-07-28T09:49:28.923Z,3.08
2022-07-28T09:52:38.471Z,3.17
2022-07-28T09:55:17.106Z,3.55
2022-07-28T09:57:52.651Z,2.55
2022-07-28T10:00:43.920Z,7.72
2022-07-28T10:03:42.135Z,3.78
2022-07-28T10:07:00.386Z,3.85
2022-07-28T10:09:36.978Z,3.78
2022-07-28T10:12:45.923Z,4.40
2022-07-28T10:16:07.084Z,3.67
2022-07-28T10:18:49.271Z,4.75
2022-07-28T10:21:27.504Z,3.78
2022-07-28T10:24:47.927Z,5.53
2022-07-28T10:27:29.051Z,5.13
2022-07-28T10:30:27.942Z,7.35
2022-07-28T10:33:07.574Z,6.40
2022-07-28T10:35:55.250Z,5.55
2022-07-28T10:39:00.134Z,5.13
2022-07-28T10:41:53.597Z,5.20
2022-07-28T10:44:31.463Z,3.65
2022-07-28T10:47:18.161Z,3.80
2022-07-28T10:50:17.535Z,4.32
2022-07-28T10:53:02.381Z,2.70
2022-07-28T10:56:15.865Z,3.33
2022-07-28T10:59:38.218Z,2.95
2022-07-28T11:02:44.099Z,2.95
2022-07-28T11:05:48.020Z,3.92
2022-07-28T11:08:52.755Z,4.80
2022-07-28T11:11:51.946Z,3.25
2022-07-28T11:14:43.118Z,5.03
2022-07-28T11:17:38.755Z,4.50
2022-07-28T11:21:11.057Z,3.67
2022-07-28T11:24:18.082Z,2.83
2022-07-28T11:27:15.246Z,2.33
2022-07-28T11:29:54.496Z,2.63
2022-07-28T11:32:55.772Z,2.28
2022-07-28T11:35:34.823Z,3.22
2022-07-28T11:38:30.406Z,4.25
2022-07-28T11:41:47.584Z,2.80
2022-07-28T11:47:25.826Z,3.78
2022-07-28T11:50:18.886Z,2.33
2022-07-28T11:53:06.675Z,3.33
2022-07-28T11:55:56.116Z,3.70
2022-07-28T12:02:05.110Z,2.72
2022-07-28T12:04:41.591Z,4.30
2022-07-28T12:07:21.143Z,2.42
2022-07-28T12:09:56.874Z,2.10
2022-07-28T12:12:33.370Z,2.17
2022-07-28T12:15:14.856Z,2.25
2022-07-28T12:17:51.702Z,2.30
2022-07-28T12:20:36.366Z,2.47
2022-07-28T12:23:15.761Z,2.78
2022-07-28T12:25:52.266Z,3.40
2022-07-28T12:28:51.758Z,2.33
2022-07-28T12:31:37.754Z,3.13
2022-07-28T12:34:29.307Z,2.80
2022-07-28T12:37:05.851Z,2.20
2022-07-28T12:40:04.592Z,2.60
2022-07-28T12:42:41.631Z,2.60
2022-07-28T12:45:20.450Z,2.67
2022-07-28T12:48:29.308Z,2.80
2022-07-28T12:51:11.194Z,1.85
2022-07-28T12:54:01.477Z,3.05
2022-07-28T12:56:59.930Z,1.88
2022-07-28T13:00:36.545Z,3.08
2022-07-28T13:03:29.595Z,2.60
2022-07-28T13:06:32.436Z,2.58
2022-07-28T13:09:14.948Z,3.30
2022-07-28T13:12:29.496Z,2.13
2022-07-28T13:15:30.358Z,2.10
2022-07-28T13:18:06.983Z,3.60
2022-07-28T13:21:04.161Z,1.65
2022-07-28T13:23:51.645Z,2.53
2022-07-28T13:26:34.446Z,2.22
2022-07-28T13:29:20.702Z,3.53
2022-07-28T13:31:59.576Z,2.47
2022-07-28T13:34:39.574Z,2.58
2022-07-28T13:37:18.380Z,3.60
2022-07-28T13:39:55.980Z,4.30
2022-07-28T13:42:38.926Z,2.55
2022-07-28T13:46:09.270Z,1.27
2022-07-28T13:48:57.846Z,2.38
2022-07-28T13:51:44.893Z,2.53
2022-07-28T13:54:27.607Z,2.97
2022-07-28T13:57:06.452Z,3.75
2022-07-28T13:59:47.867Z,4.07
2022-07-28T14:02:44.466Z,4.60
2022-07-28T14:05:23.466Z,2.53
2022-07-28T14:08:07.741Z,1.73
2022-07-28T14:10:48.934Z,3.55
2022-07-28T14:13:31.579Z,1.85
2022-07-28T14:16:13.895Z,3.10
2022-07-28T14:19:06.700Z,1.98
2022-07-28T14:21:42.423Z,1.90
2022-07-28T14:24:18.367Z,2.58
2022-07-28T14:27:29.442Z,1.58
2022-07-28T14:30:13.246Z,2.75
2022-07-28T14:33:02.312Z,3.58
2022-07-28T14:35:40.460Z,2.13
2022-07-28T14:38:52.479Z,2.78
2022-07-28T14:41:22.004Z,2.55
2022-07-28T14:44:01.684Z,2.53
2022-07-28T14:46:37.596Z,3.75
2022-07-28T14:49:18.581Z,3.13
2022-07-28T14:51:54.460Z,4.28
2022-07-28T14:55:05.024Z,2.08
2022-07-28T14:57:50.389Z,1.98
2022-07-28T15:00:38.499Z,2.38
2022-07-28T15:03:17.353Z,2.78
2022-07-28T15:06:22.989Z,1.52
2022-07-28T15:09:46.189Z,1.88
2022-07-28T15:12:25.743Z,4.00
2022-07-28T15:15:04.315Z,2.67
2022-07-28T15:17:45.200Z,4.20
2022-07-28T15:20:37.256Z,2.55
2022-07-28T15:23:40.666Z,1.95
2022-07-28T15:26:32.840Z,3.67
2022-07-28T15:29:16.539Z,1.63
2022-07-28T15:31:54.272Z,1.65
2022-07-28T15:34:32.557Z,2.55
2022-07-28T15:37:11.722Z,3.20
2022-07-28T15:39:47.659Z,1.52
2022-07-28T15:42:28.389Z,1.40
2022-07-28T15:45:13.368Z,1.73
2022-07-28T15:47:53.997Z,2.58
2022-07-28T15:51:04.255Z,1.08
2022-07-28T15:53:40.110Z,1.73
2022-07-28T15:56:23.246Z,2.58
2022-07-28T15:59:00.926Z,2.20
2022-07-28T16:02:00.313Z,3.60
2022-07-28T16:04:49.077Z,1.55
2022-07-28T16:07:56.559Z,4.35
2022-07-28T16:10:32.517Z,2.47
2022-07-28T16:13:11.068Z,1.20
2022-07-28T16:15:49.309Z,2.92
2022-07-28T16:18:29.543Z,1.42
2022-07-28T16:21:13.187Z,1.17
2022-07-28T16:23:55.099Z,0.95
2022-07-28T16:26:35.108Z,2.35
2022-07-28T16:29:13.643Z,1.70
2022-07-28T16:32:05.105Z,2.03
2022-07-28T16:37:33.961Z,1.23
2022-07-28T16:43:08.395Z,1.30
2022-07-28T16:45:47.242Z,2.45
2022-07-28T16:48:32.082Z,1.50
2022-07-28T16:51:14.840Z,1.67
2022-07-28T16:53:58.227Z,0.63
2022-07-28T16:56:52.332Z,1.38
2022-07-28T16:59:37.471Z,1.75
2022-07-28T17:02:46.077Z,1.17
2022-07-28T17:05:34.177Z,1.23
2022-07-28T17:08:10.960Z,1.10
2022-07-28T17:10:47.271Z,1.50
2022-07-28T17:13:27.801Z,1.15
2022-07-28T17:16:09.011Z,1.10
2022-07-28T17:18:47.824Z,1.00
2022-07-28T17:21:23.599Z,1.73
2022-07-28T17:24:24.240Z,1.60
2022-07-28T17:30:01.833Z,2.17
2022-07-28T17:32:37.798Z,1.35
2022-07-28T17:35:34.635Z,2.47
2022-07-28T17:38:37.240Z,3.05
2022-07-28T17:41:40.091Z,1.00
2022-07-28T17:44:29.587Z,1.88
2022-07-28T17:47:35.839Z,0.55
2022-07-28T17:50:29.016Z,1.40
2022-07-28T17:53:05.043Z,1.65
2022-07-28T17:56:00.534Z,0.73
2022-07-28T17:58:45.123Z,1.05
2022-07-28T18:01:33.245Z,1.45
2022-07-28T18:04:40.935Z,1.40
2022-07-28T18:07:19.668Z,2.03
2022-07-28T18:09:59.259Z,2.20
2022-07-28T18:12:34.802Z,1.58
2022-07-28T18:15:14.104Z,1.20
2022-07-28T18:17:56.212Z,1.33
2022-07-28T18:20:34.177Z,1.15
2022-07-28T18:23:20.853Z,1.80
2022-07-28T18:25:58.139Z,3.83
2022-07-28T18:28:50.365Z,1.67
2022-07-28T18:31:52.473Z,1.80
2022-07-28T18:34:31.487Z,1.52
2022-07-28T18:37:15.015Z,1.67
2022-07-28T18:39:55.535Z,2.97
2022-07-28T18:45:32.007Z,1.30
2022-07-28T18:48:23.231Z,1.35
2022-07-28T18:51:03.982Z,1.65
2022-07-28T18:53:49.006Z,2.17
2022-07-28T18:57:04.959Z,2.75
2022-07-28T18:59:51.760Z,1.75
2022-07-28T19:02:43.273Z,1.52
2022-07-28T19:05:19.251Z,2.35
2022-07-28T19:08:13.796Z,1.85
2022-07-28T19:11:02.698Z,1.92
2022-07-28T19:13:50.281Z,1.55
2022-07-28T19:16:35.368Z,1.38
2022-07-28T19:19:21.856Z,2.90
2022-07-28T19:22:01.664Z,3.25
2022-07-28T19:24:49.991Z,2.22
2022-07-28T19:27:47.744Z,3.58
2022-07-28T19:30:33.788Z,2.17
2022-07-28T19:33:17.206Z,2.15
2022-07-28T19:36:12.437Z,2.20
2022-07-28T19:39:12.037Z,2.97
2022-07-28T19:41:53.404Z,2.35
2022-07-28T19:44:45.328Z,3.13
2022-07-28T19:47:24.975Z,2.90
2022-07-28T19:50:21.460Z,3.30
2022-07-28T19:52:58.016Z,2.10
2022-07-28T19:55:39.757Z,3.08
2022-07-28T19:58:19.314Z,2.90
2022-07-28T20:04:15.323Z,2.28
2022-07-28T20:06:59.999Z,3.00
2022-07-28T20:09:41.864Z,3.30
2022-07-28T20:12:26.257Z,2.00
2022-07-28T20:15:18.718Z,1.98
2022-07-28T20:17:59.440Z,2.95
2022-07-28T20:20:39.531Z,2.88
2022-07-28T20:23:32.483Z,3.90
2022-07-28T20:26:08.194Z,3.35
2022-07-28T20:29:00.397Z,3.65
2022-07-28T20:31:38.448Z,3.08
2022-07-28T20:34:19.624Z,2.67
2022-07-28T20:37:06.399Z,4.22
2022-07-28T20:40:02.269Z,2.63
2022-07-28T20:43:03.667Z,2.85
2022-07-28T20:45:46.547Z,4.75
2022-07-28T20:48:26.229Z,4.70
2022-07-28T20:51:14.702Z,5.63
2022-07-28T20:54:03.661Z,4.13
2022-07-28T20:56:48.301Z,4.25
2022-07-28T20:59:30.618Z,5.88
2022-07-28T21:02:09.982Z,4.82
2022-07-28T21:05:03.252Z,5.45
2022-07-28T21:08:25.349Z,3.75
2022-07-28T21:11:36.007Z,5.55
2022-07-28T21:14:19.359Z,4.72
2022-07-28T21:17:01.348Z,4.32
2022-07-28T21:19:54.670Z,4.10
2022-07-28T21:22:32.880Z,4.38
2022-07-28T21:25:17.559Z,5.10
2022-07-28T21:28:17.126Z,5.10
2022-07-28T21:30:53.023Z,5.40
2022-07-28T21:33:29.636Z,4.63
2022-07-28T21:36:07.159Z,7.72
2022-07-28T21:38:51.374Z,6.38
2022-07-28T21:41:36.358Z,6.70
2022-07-28T21:44:24.012Z,4.22
2022-07-28T21:46:59.772Z,6.35
2022-07-28T21:49:38.080Z,4.97
2022-07-28T21:52:21.742Z,4.10
2022-07-28T21:54:58.052Z,4.78
2022-07-28T21:57:52.550Z,5.45
2022-07-28T22:00:31.922Z,4.40
2022-07-28T22:03:23.087Z,7.10
2022-07-28T22:06:04.563Z,5.97
2022-07-28T22:08:44.330Z,5.20
2022-07-28T22:11:25.172Z,6.30
2022-07-28T22:14:05.509Z,4.43
2022-07-28T22:16:44.610Z,5.80
2022-07-28T22:19:20.987Z,7.43
2022-07-28T22:21:59.938Z,7.25
2022-07-28T22:24:42.539Z,5.05
2022-07-28T22:27:24.823Z,4.63
2022-07-28T22:30:06.781Z,6.10
2022-07-28T22:32:46.709Z,7.43
2022-07-28T22:35:51.701Z,4.45
2022-07-28T22:38:35.776Z,5.00
2022-07-28T22:41:11.299Z,5.53
2022-07-28T22:43:57.348Z,4.00
2022-07-28T22:50:46.383Z,5.60
2022-07-28T22:53:33.905Z,6.82
2022-07-28T22:56:15.568Z,5.88
2022-07-28T22:58:59.079Z,5.68
2022-07-28T23:01:54.973Z,4.45
2022-07-28T23:04:32.506Z,3.85
2022-07-28T23:07:50.785Z,7.40
